Time;durP1;ratioP1;P1;durP2;ratioP2;P2;SDS_P1;SDS_P2;PMS_P1;PMS_P2;Temp;Humidity;BMP_temperature;BMP_pressure;BME280_temperature;BME280_humidity;BME280_pressure;Samples;Min_cycle;Max_cycle;Signal;HPM_P1;HPM_P2
2022/02/08 00:02:00;;;;;;;27.83;7.03;;;8.70;99.90;;;;;;5069546;28;20193;-80
2022/02/08 00:04:28;;;;;;;21.23;6.13;;;8.70;99.90;;;;;;5071145;28;20197;-81
2022/02/08 00:06:55;;;;;;;21.93;5.13;;;8.70;99.90;;;;;;5070089;28;20310;-81
2022/02/08 00:09:24;;;;;;;29.53;6.57;;;8.70;99.90;;;;;;5069843;28;20197;-83
2022/02/08 00:11:52;;;;;;;33.13;6.07;;;8.80;99.90;;;;;;5069874;28;20205;-83
2022/02/08 00:14:19;;;;;;;22.33;5.57;;;8.70;99.90;;;;;;5070065;28;20593;-80
2022/02/08 00:16:46;;;;;;;25.87;5.73;;;8.80;99.90;;;;;;5070199;28;20236;-82
2022/02/08 00:19:13;;;;;;;27.27;5.93;;;8.70;99.90;;;;;;5070245;28;20233;-82
2022/02/08 00:21:40;;;;;;;24.03;5.20;;;8.70;99.90;;;;;;5085189;28;20616;-82
2022/02/08 00:24:07;;;;;;;26.33;5.57;;;8.70;99.90;;;;;;5086101;28;20215;-82
2022/02/08 00:26:33;;;;;;;25.30;5.50;;;8.70;99.90;;;;;;5077287;28;20672;-81
2022/02/08 00:29:02;;;;;;;29.90;6.37;;;8.70;99.90;;;;;;5088251;28;20200;-82
2022/02/08 00:31:29;;;;;;;25.87;5.60;;;8.80;99.90;;;;;;5086646;28;20204;-81
2022/02/08 00:33:55;;;;;;;20.07;4.77;;;8.80;99.90;;;;;;5066999;28;20206;-81
2022/02/08 00:36:23;;;;;;;23.83;5.30;;;8.80;99.90;;;;;;5067781;28;20210;-81
2022/02/08 00:38:51;;;;;;;19.27;4.77;;;8.80;99.90;;;;;;5068136;28;20205;-81
2022/02/08 00:41:18;;;;;;;27.33;5.30;;;8.80;99.90;;;;;;5067895;28;20197;-83
2022/02/08 00:43:51;;;;;;;29.80;7.10;;;8.80;99.90;;;;;;5066871;28;20212;-81
2022/02/08 00:46:27;;;;;;;22.60;4.97;;;8.80;99.90;;;;;;5073315;28;20204;-82
2022/02/08 00:48:58;;;;;;;26.77;6.00;;;8.80;99.90;;;;;;5071538;28;20242;-82
2022/02/08 00:51:27;;;;;;;32.63;6.33;;;8.80;99.90;;;;;;5072355;28;20830;-81
2022/02/08 00:53:53;;;;;;;30.90;7.50;;;8.80;99.90;;;;;;5086755;28;20648;-82
2022/02/08 00:56:20;;;;;;;25.63;6.27;;;8.80;99.90;;;;;;5085625;28;20204;-81
2022/02/08 00:58:48;;;;;;;25.30;7.07;;;8.70;99.90;;;;;;5065475;28;20241;-83
2022/02/08 01:01:15;;;;;;;20.50;4.93;;;8.80;99.90;;;;;;5066474;28;20228;-81
2022/02/08 01:03:44;;;;;;;27.30;6.73;;;8.80;99.90;;;;;;5067585;28;20215;-80
2022/02/08 01:06:10;;;;;;;29.77;5.40;;;8.80;99.90;;;;;;5066010;28;20201;-81
2022/02/08 01:08:40;;;;;;;28.53;6.23;;;8.80;99.90;;;;;;5065897;28;20228;-81
2022/02/08 01:11:10;;;;;;;34.00;6.10;;;8.90;99.90;;;;;;5066733;28;20228;-81
2022/02/08 01:13:39;;;;;;;29.50;6.93;;;8.90;99.90;;;;;;5065451;28;20200;-81
2022/02/08 01:16:06;;;;;;;33.90;8.57;;;8.90;99.90;;;;;;5067217;28;20317;-79
2022/02/08 01:18:38;;;;;;;31.83;7.40;;;8.90;99.90;;;;;;5069465;28;20201;-80
2022/02/08 01:21:06;;;;;;;30.23;8.07;;;8.90;99.90;;;;;;5064696;28;20225;-81
2022/02/08 01:23:33;;;;;;;30.17;8.10;;;8.90;99.90;;;;;;5066379;28;20208;-81
2022/02/08 01:26:08;;;;;;;30.63;8.27;;;9.00;99.90;;;;;;5068909;28;20219;-81
2022/02/08 01:28:41;;;;;;;32.03;7.97;;;9.00;99.90;;;;;;5070766;28;20203;-80
2022/02/08 01:31:09;;;;;;;40.63;9.73;;;9.10;99.90;;;;;;5090366;28;20766;-81
2022/02/08 01:34:03;;;;;;;35.57;8.40;;;9.10;99.90;;;;;;5085672;28;20204;-79
2022/02/08 01:36:37;;;;;;;29.90;8.00;;;9.10;99.90;;;;;;5085208;28;20604;-81
2022/02/08 01:39:11;;;;;;;28.20;7.37;;;9.20;99.90;;;;;;5084464;28;20214;-81
2022/02/08 01:41:55;;;;;;;34.13;7.50;;;9.20;99.90;;;;;;5085926;28;20208;-81
2022/02/08 01:44:29;;;;;;;32.60;8.73;;;9.10;99.90;;;;;;5086494;28;20246;-81
2022/02/08 01:47:07;;;;;;;24.50;7.37;;;9.10;99.90;;;;;;5086003;28;20257;-81
2022/02/08 01:49:38;;;;;;;35.10;8.17;;;9.20;99.90;;;;;;5085592;28;20228;-80
2022/02/08 01:52:07;;;;;;;27.30;7.30;;;9.10;99.90;;;;;;5085686;28;20196;-80
2022/02/08 01:54:34;;;;;;;33.93;8.63;;;9.10;99.90;;;;;;5086701;28;20266;-80
2022/02/08 01:57:03;;;;;;;31.20;7.50;;;9.10;99.90;;;;;;5086723;28;20559;-81
2022/02/08 01:59:29;;;;;;;32.73;8.73;;;9.20;99.90;;;;;;5069570;28;20252;-80
2022/02/08 02:01:56;;;;;;;27.70;8.33;;;9.20;99.90;;;;;;5064838;28;20209;-80
2022/02/08 02:04:23;;;;;;;41.87;9.63;;;9.20;99.90;;;;;;5076098;22;20189;-82
2022/02/08 02:06:51;;;;;;;32.60;8.50;;;9.30;99.90;;;;;;5086811;28;20212;-81
2022/02/08 02:09:19;;;;;;;39.70;9.83;;;9.20;99.90;;;;;;5086947;28;20208;-80
2022/02/08 02:11:46;;;;;;;35.53;9.00;;;9.30;99.90;;;;;;5086269;28;20212;-80
2022/02/08 02:14:13;;;;;;;37.47;10.43;;;9.30;99.90;;;;;;5086074;28;20596;-83
2022/02/08 02:16:52;;;;;;;28.73;8.70;;;9.30;99.90;;;;;;5085605;28;20220;-82
2022/02/08 02:19:20;;;;;;;38.60;7.17;;;9.30;99.90;;;;;;5086674;28;20211;-81
2022/02/08 02:21:47;;;;;;;28.67;7.10;;;9.30;99.90;;;;;;5086384;28;20271;-81
2022/02/08 02:24:15;;;;;;;31.63;6.47;;;9.20;99.90;;;;;;5085334;28;20207;-80
2022/02/08 02:26:42;;;;;;;27.40;6.83;;;9.20;99.90;;;;;;5086179;28;20500;-79
2022/02/08 02:29:09;;;;;;;25.90;6.87;;;9.20;99.90;;;;;;5086129;28;20205;-79
2022/02/08 02:31:36;;;;;;;27.00;6.87;;;9.20;99.90;;;;;;5085360;28;20196;-80
2022/02/08 02:34:03;;;;;;;22.73;7.10;;;9.20;99.90;;;;;;5068879;28;20668;-79
2022/02/08 02:36:30;;;;;;;25.40;6.73;;;9.20;99.90;;;;;;5065169;28;21011;-80
2022/02/08 02:38:56;;;;;;;22.87;5.50;;;9.20;99.90;;;;;;5065725;28;20557;-80
2022/02/08 02:41:25;;;;;;;25.07;6.53;;;9.20;99.90;;;;;;5071532;28;20236;-79
2022/02/08 02:43:52;;;;;;;30.77;7.70;;;9.20;99.90;;;;;;5083547;28;20205;-81
2022/02/08 02:46:21;;;;;;;27.33;7.07;;;9.20;99.90;;;;;;5086063;28;20521;-80
2022/02/08 02:48:47;;;;;;;24.67;6.97;;;9.20;99.90;;;;;;5082136;28;20263;-81
2022/02/08 02:51:15;;;;;;;29.20;7.07;;;9.20;99.90;;;;;;5065057;28;20271;-81
2022/02/08 02:53:42;;;;;;;28.57;7.00;;;9.10;99.90;;;;;;5063401;28;20247;-81
2022/02/08 02:56:09;;;;;;;27.20;6.73;;;9.10;99.90;;;;;;5065670;28;20206;-81
2022/02/08 02:58:38;;;;;;;23.90;6.30;;;9.20;99.90;;;;;;5068174;28;20200;-81
2022/02/08 03:01:18;;;;;;;28.17;6.47;;;9.10;99.90;;;;;;5069860;28;20224;-82
2022/02/08 03:03:57;;;;;;;29.37;7.47;;;9.10;99.90;;;;;;5069086;28;20212;-81
2022/02/08 03:17:55;;;;;;;26.90;7.70;;;9.10;99.90;;;;;;5067383;28;20215;-81
2022/02/08 03:20:22;;;;;;;26.80;7.07;;;9.10;99.90;;;;;;5067920;28;20769;-80
2022/02/08 03:22:49;;;;;;;26.97;6.70;;;9.10;99.90;;;;;;5068389;28;20220;-80
2022/02/08 03:25:16;;;;;;;33.40;7.03;;;9.10;99.90;;;;;;5068809;28;20269;-81
2022/02/08 03:27:42;;;;;;;35.83;7.63;;;9.10;99.90;;;;;;5084384;28;20224;-82
2022/02/08 03:30:12;;;;;;;33.60;6.90;;;9.10;99.90;;;;;;5088718;28;20213;-82
2022/02/08 03:32:39;;;;;;;29.33;6.90;;;9.10;99.90;;;;;;5088931;28;20200;-81
2022/02/08 03:35:08;;;;;;;48.37;7.53;;;9.10;99.90;;;;;;5084358;28;20213;-80
2022/02/08 03:37:35;;;;;;;32.17;7.17;;;9.10;99.90;;;;;;5080833;28;20208;-82
2022/02/08 03:40:07;;;;;;;28.00;5.73;;;9.10;99.90;;;;;;5088351;28;20211;-83
2022/02/08 03:42:38;;;;;;;23.47;5.70;;;9.10;99.90;;;;;;5065926;28;20292;-81
2022/02/08 03:45:09;;;;;;;36.43;7.60;;;9.10;99.90;;;;;;5069567;28;20247;-81
2022/02/08 03:47:37;;;;;;;26.77;5.17;;;9.10;99.90;;;;;;5085922;28;20195;-80
2022/02/08 03:50:05;;;;;;;27.30;6.80;;;9.10;99.90;;;;;;5088215;28;20302;-81
2022/02/08 03:52:33;;;;;;;33.10;6.60;;;9.10;99.90;;;;;;5089144;28;20546;-80
2022/02/08 03:54:59;;;;;;;35.67;7.97;;;9.10;99.90;;;;;;5087819;28;20361;-80
2022/02/08 03:57:27;;;;;;;33.43;5.90;;;9.10;99.90;;;;;;5088262;28;20203;-80
2022/02/08 03:59:54;;;;;;;20.93;5.73;;;9.00;99.90;;;;;;5076969;28;20220;-81
2022/02/08 04:02:39;;;;;;;34.90;6.77;;;9.00;99.90;;;;;;5067719;28;20293;-80
2022/02/08 04:05:14;;;;;;;25.73;7.03;;;9.00;99.90;;;;;;5068129;28;20241;-81
2022/02/08 04:07:46;;;;;;;33.23;6.17;;;9.00;99.90;;;;;;5067946;28;20200;-84
2022/02/08 04:10:19;;;;;;;30.30;6.10;;;9.00;99.90;;;;;;5069754;28;20209;-82
2022/02/08 04:12:55;;;;;;;42.67;7.50;;;9.00;99.90;;;;;;5068567;28;20205;-83
2022/02/08 04:15:38;;;;;;;25.47;6.23;;;9.00;99.90;;;;;;5066977;28;20288;-83
2022/02/08 04:18:31;;;;;;;33.00;6.87;;;9.00;99.90;;;;;;5068629;28;20240;-82
2022/02/08 04:43:02;;;;;;;31.33;7.10;;;9.00;99.90;;;;;;5055130;28;20255;-83
2022/02/08 04:45:35;;;;;;;31.90;6.80;;;9.00;99.90;;;;;;5069547;28;20209;-82
2022/02/08 04:48:07;;;;;;;35.43;6.40;;;9.00;99.90;;;;;;5068128;28;20201;-81
2022/02/08 04:50:36;;;;;;;22.70;6.83;;;9.00;99.90;;;;;;5067861;28;20196;-82
2022/02/08 04:53:11;;;;;;;33.37;6.17;;;9.00;99.90;;;;;;5068089;28;20384;-79
2022/02/08 04:55:40;;;;;;;36.13;6.63;;;9.00;99.90;;;;;;5068882;28;20208;-80
2022/02/08 04:58:22;;;;;;;25.60;5.27;;;9.00;99.90;;;;;;5078180;28;20209;-82
2022/02/08 05:01:02;;;;;;;25.43;5.60;;;9.00;99.90;;;;;;5088337;28;20323;-82
2022/02/08 05:36:56;;;;;;;25.07;5.80;;;9.00;99.90;;;;;;5065466;28;20286;-81
2022/02/08 05:42:19;;;;;;;28.30;5.93;;;9.00;99.90;;;;;;5069888;28;20677;-80
2022/02/08 05:44:53;;;;;;;32.20;7.23;;;9.00;99.90;;;;;;5080193;28;20228;-81
2022/02/08 05:47:20;;;;;;;28.37;7.57;;;8.90;99.90;;;;;;5080242;28;20224;-79
2022/02/08 05:50:02;;;;;;;31.40;6.43;;;8.90;99.90;;;;;;5083844;28;20807;-80
2022/02/08 05:55:09;;;;;;;28.87;6.30;;;9.00;99.90;;;;;;5081373;28;20318;-82
2022/02/08 05:57:38;;;;;;;31.83;8.00;;;9.00;99.90;;;;;;5085630;28;20995;-80
2022/02/08 06:00:06;;;;;;;30.60;8.53;;;9.00;99.90;;;;;;5076935;28;20213;-81
2022/02/08 06:02:33;;;;;;;32.60;8.37;;;9.00;99.90;;;;;;5064825;28;20243;-80
2022/02/08 06:05:00;;;;;;;28.37;7.17;;;9.00;99.90;;;;;;5064495;28;20241;-81
2022/02/08 06:07:27;;;;;;;27.03;7.50;;;8.90;99.90;;;;;;5070590;28;20197;-79
2022/02/08 06:09:55;;;;;;;26.97;6.57;;;8.90;99.90;;;;;;5084689;28;20268;-81
2022/02/08 06:12:25;;;;;;;30.10;7.70;;;8.90;99.90;;;;;;5085688;28;20189;-80
2022/02/08 06:14:57;;;;;;;37.17;8.77;;;8.90;99.90;;;;;;5080027;28;20657;-81
2022/02/08 06:17:24;;;;;;;34.07;7.97;;;9.00;99.90;;;;;;5076077;28;20331;-80
2022/02/08 06:19:55;;;;;;;34.13;7.70;;;9.00;99.90;;;;;;5085941;28;20196;-81
2022/02/08 06:22:22;;;;;;;24.40;6.70;;;9.00;99.90;;;;;;5085608;28;20232;-81
2022/02/08 06:24:48;;;;;;;31.33;7.93;;;9.00;99.90;;;;;;5085188;28;20301;-80
2022/02/08 06:27:15;;;;;;;29.00;6.33;;;8.90;99.90;;;;;;5071246;28;20216;-81
2022/02/08 06:29:42;;;;;;;29.13;7.40;;;8.90;99.90;;;;;;5064408;28;20200;-80
2022/02/08 06:32:11;;;;;;;30.47;6.43;;;8.90;99.90;;;;;;5069383;28;20205;-80
2022/02/08 06:34:37;;;;;;;31.67;7.07;;;8.80;99.90;;;;;;5069713;28;20874;-81
2022/02/08 06:37:10;;;;;;;27.30;6.83;;;8.80;99.90;;;;;;5087809;28;20628;-80
2022/02/08 06:39:37;;;;;;;30.97;7.07;;;8.90;99.90;;;;;;5089787;28;20204;-81
2022/02/08 06:42:05;;;;;;;30.43;8.07;;;8.80;99.90;;;;;;5089586;28;20224;-80
2022/02/08 06:44:32;;;;;;;38.17;7.93;;;8.90;99.90;;;;;;5088720;28;20204;-78
2022/02/08 06:46:59;;;;;;;27.03;7.17;;;8.90;99.90;;;;;;5089097;28;20509;-79
2022/02/08 06:49:27;;;;;;;31.50;6.77;;;8.90;99.90;;;;;;5079619;28;20209;-80
2022/02/08 06:51:54;;;;;;;31.07;6.90;;;8.90;99.90;;;;;;5068272;28;20196;-81
2022/02/08 06:54:21;;;;;;;33.93;7.87;;;8.90;99.90;;;;;;5069172;28;20205;-82
2022/02/08 06:56:48;;;;;;;31.57;7.43;;;8.90;99.90;;;;;;5085460;28;20215;-81
2022/02/08 06:59:17;;;;;;;28.40;6.70;;;9.00;99.90;;;;;;5088734;28;20200;-81
2022/02/08 07:01:45;;;;;;;34.90;6.63;;;8.90;99.90;;;;;;5074728;28;20525;-81
2022/02/08 07:04:15;;;;;;;35.83;8.63;;;8.90;99.90;;;;;;5070058;28;20202;-81
2022/02/08 07:06:43;;;;;;;27.60;7.87;;;8.90;99.90;;;;;;5068655;28;20348;-81
2022/02/08 07:09:11;;;;;;;19.27;6.20;;;9.00;99.90;;;;;;5069160;28;20201;-80
2022/02/08 07:11:37;;;;;;;33.77;7.10;;;9.00;99.90;;;;;;5088198;28;20321;-81
2022/02/08 07:14:06;;;;;;;29.50;6.40;;;9.00;99.90;;;;;;5089421;28;20197;-82
2022/02/08 07:16:33;;;;;;;23.50;5.80;;;9.00;99.90;;;;;;5089579;28;20242;-82
2022/02/08 07:19:00;;;;;;;23.70;6.87;;;9.00;99.90;;;;;;5086511;28;20250;-81
2022/02/08 07:21:27;;;;;;;24.97;5.83;;;9.00;99.90;;;;;;5089375;28;20224;-81
2022/02/08 07:23:55;;;;;;;27.63;5.90;;;9.00;99.90;;;;;;5089760;28;20207;-81
2022/02/08 07:26:22;;;;;;;28.43;6.37;;;9.00;99.90;;;;;;5090009;28;20196;-82
2022/02/08 07:28:49;;;;;;;29.50;6.50;;;9.00;99.90;;;;;;5088450;28;20300;-81
2022/02/08 07:31:22;;;;;;;23.83;6.23;;;9.00;99.90;;;;;;5113013;22;20235;-81
2022/02/08 07:33:55;;;;;;;20.37;5.77;;;9.00;99.90;;;;;;5108495;28;20212;-80
2022/02/08 07:36:30;;;;;;;20.07;7.00;;;9.00;99.90;;;;;;5089053;28;20744;-80
2022/02/08 07:38:59;;;;;;;26.37;5.87;;;9.00;99.90;;;;;;5087798;28;20200;-82
2022/02/08 07:41:39;;;;;;;24.37;7.13;;;9.00;99.90;;;;;;5107428;28;20246;-81
2022/02/08 07:44:08;;;;;;;20.80;5.43;;;8.90;99.90;;;;;;5107848;28;20203;-80
2022/02/08 07:46:35;;;;;;;29.07;7.20;;;9.00;99.90;;;;;;5108268;28;20215;-79
2022/02/08 07:49:03;;;;;;;28.13;6.93;;;9.00;99.90;;;;;;5103437;28;20750;-80
2022/02/08 07:51:31;;;;;;;25.73;6.30;;;9.00;99.90;;;;;;5088628;28;20287;-81
2022/02/08 07:54:00;;;;;;;20.80;5.77;;;9.00;99.90;;;;;;5088281;28;20208;-81
2022/02/08 07:56:26;;;;;;;22.27;5.43;;;9.00;99.90;;;;;;5088355;28;20212;-82
2022/02/08 07:58:53;;;;;;;25.53;5.93;;;9.00;99.90;;;;;;5088557;28;20216;-79
2022/02/08 08:01:20;;;;;;;28.17;5.47;;;9.10;99.90;;;;;;5088153;28;20287;-80
2022/02/08 08:03:47;;;;;;;24.20;5.23;;;9.10;99.90;;;;;;5088496;28;20193;-80
2022/02/08 08:06:16;;;;;;;26.53;5.17;;;9.10;99.90;;;;;;5088327;28;20192;-81
2022/02/08 08:08:43;;;;;;;23.17;4.37;;;9.20;99.90;;;;;;5089085;28;20292;-81
2022/02/08 08:11:16;;;;;;;20.33;4.30;;;9.20;99.90;;;;;;5066657;28;20531;-80
2022/02/08 08:13:49;;;;;;;21.97;4.40;;;9.20;99.90;;;;;;5087392;28;20474;-82
2022/02/08 08:16:25;;;;;;;18.20;4.10;;;9.20;99.90;;;;;;5087875;28;20227;-80
2022/02/08 08:19:04;;;;;;;21.03;4.17;;;9.30;99.90;;;;;;5091232;28;20196;-83
2022/02/08 08:21:33;;;;;;;16.20;4.43;;;9.30;99.90;;;;;;5088412;28;20239;-80
2022/02/08 08:24:01;;;;;;;20.87;5.10;;;9.30;99.90;;;;;;5088320;28;20677;-84
2022/02/08 20:58:04;;;;;;;19.97;3.63;;;9.60;99.90;;;;;;4637538;30;20282;-78
2022/02/08 21:00:34;;;;;;;15.07;2.90;;;9.60;99.90;;;;;;4767072;29;20248;-79
2022/02/08 22:16:00;;;;;;;21.30;4.27;;;9.80;99.90;;;;;;5044205;28;20208;-79
2022/02/08 22:18:41;;;;;;;11.80;3.37;;;9.70;99.90;;;;;;5043452;28;20217;-79
2022/02/08 22:21:15;;;;;;;14.73;4.20;;;9.70;99.90;;;;;;5043928;28;20220;-79
2022/02/08 22:23:52;;;;;;;13.30;3.53;;;9.70;99.90;;;;;;5043284;28;20202;-79
2022/02/08 22:26:57;;;;;;;14.97;3.77;;;9.70;99.90;;;;;;5043172;28;20225;-79
2022/02/08 22:29:34;;;;;;;17.93;3.60;;;9.70;99.90;;;;;;5043654;28;20205;-78
2022/02/08 22:32:06;;;;;;;16.37;4.33;;;9.70;99.90;;;;;;5043263;28;20283;-79
2022/02/08 22:34:42;;;;;;;16.37;4.27;;;9.70;99.90;;;;;;5043888;28;20198;-79
2022/02/08 22:37:16;;;;;;;15.57;3.97;;;9.70;99.90;;;;;;5044302;28;20224;-79
2022/02/08 22:39:50;;;;;;;18.77;5.90;;;9.70;99.90;;;;;;5043181;28;20193;-78
2022/02/08 22:42:21;;;;;;;14.30;3.80;;;9.70;99.90;;;;;;5043531;28;20225;-79
2022/02/08 22:44:52;;;;;;;16.57;4.57;;;9.60;99.90;;;;;;5043296;28;20186;-78
2022/02/08 22:47:19;;;;;;;18.70;5.30;;;9.60;99.90;;;;;;5050497;28;20216;-78
2022/02/08 22:49:47;;;;;;;18.10;4.47;;;9.70;99.90;;;;;;5043252;28;20206;-78
2022/02/08 22:52:14;;;;;;;13.33;4.10;;;9.60;99.90;;;;;;5043212;28;20202;-79
2022/02/08 22:54:40;;;;;;;13.77;3.70;;;9.70;99.90;;;;;;5043158;28;20194;-79
2022/02/08 22:57:08;;;;;;;18.07;3.93;;;9.60;99.90;;;;;;5042924;28;20235;-79
2022/02/08 22:59:35;;;;;;;10.10;3.17;;;9.60;99.90;;;;;;5043918;28;20997;-79
2022/02/08 23:02:04;;;;;;;16.70;4.03;;;9.60;99.90;;;;;;5041995;28;20209;-79
2022/02/08 23:04:32;;;;;;;14.47;4.00;;;9.60;99.90;;;;;;5043778;28;20198;-79
2022/02/08 23:07:00;;;;;;;14.53;3.77;;;9.60;99.90;;;;;;5043316;28;20205;-79
2022/02/08 23:09:34;;;;;;;19.00;3.57;;;9.60;99.90;;;;;;5042833;28;20206;-78
2022/02/08 23:12:26;;;;;;;16.33;3.27;;;9.60;99.90;;;;;;5043383;28;20242;-78
2022/02/08 23:15:01;;;;;;;14.77;3.00;;;9.60;99.90;;;;;;5045852;28;20794;-78
2022/02/08 23:36:58;;;;;;;12.67;3.20;;;9.50;99.90;;;;;;5038088;28;20189;-78
2022/02/08 23:39:27;;;;;;;16.97;3.17;;;9.50;99.90;;;;;;5046606;28;20206;-78
2022/02/08 23:41:54;;;;;;;19.00;3.03;;;9.50;99.90;;;;;;5046977;28;20213;-77
2022/02/08 23:44:25;;;;;;;13.97;3.73;;;9.50;99.90;;;;;;5045549;28;20236;-78
2022/02/08 23:46:52;;;;;;;15.53;3.27;;;9.60;99.90;;;;;;5046578;28;20241;-77
2022/02/08 23:49:28;;;;;;;17.70;3.47;;;9.50;99.90;;;;;;5046493;28;20206;-77
2022/02/08 23:51:58;;;;;;;22.53;4.27;;;9.50;99.90;;;;;;5046919;28;20917;-79
2022/02/08 23:54:28;;;;;;;17.87;3.90;;;9.50;99.90;;;;;;5046145;28;20633;-79
2022/02/08 23:57:02;;;;;;;12.63;2.63;;;9.50;99.90;;;;;;5044666;28;20936;-79
2022/02/08 23:59:33;;;;;;;10.53;3.23;;;9.50;99.90;;;;;;5046518;28;20407;-79
